Corona Range LRC

Jan. 22, 2020, 3:35 p.m.

  • imperial
Air Temperature RH Dewpoint Wind Chill Heat Index Wind Speed Wind Direction Precipitation Solar Radiation Soil Temperature
Date Time Max Mean Mean Total Total
US/Mountain F % F F F MPH MPH MPH deg. deg. in. MJ/m^2 F
2020-01-21 15:35 37.22 93.2 35.44 32.68 37.22 5.64 7.96 5.82 6.9 214.3 0.0 0.007 37.9
2020-01-21 15:40 37.27 92.7 35.36 30.69 37.27 9.04 9.4 7.4 11.4 214.3 0.0 0.005 37.9
2020-01-21 15:45 37.22 92.3 35.19 30.29 37.22 9.73 11.88 9.93 9.6 213.1 0.0 0.004 37.92
2020-01-21 15:50 37.22 92.8 35.33 29.22 37.22 12.24 14.92 10.27 7.2 214.8 0.0 0.005 37.94
2020-01-21 15:55 37.33 93.0 35.49 30.94 37.33 8.68 14.74 11.32 8.9 219.4 0.0 0.008 37.96
2020-01-21 16:00 37.45 92.6 35.51 31.39 37.45 8.12 13.13 10.11 10.8 221.8 0.0 0.008 37.98
2020-01-21 16:05 37.4 93.1 35.59 31.33 37.4 8.12 13.85 9.82 6.6 222.8 0.0 0.005 37.99
2020-01-21 16:10 37.22 93.1 35.41 28.95 37.22 12.95 13.67 10.18 10.3 228.5 0.0 0.005 37.99
2020-01-21 16:15 37.22 93.4 35.49 31.11 37.22 8.12 15.82 12.15 10.7 218.2 0.0 0.006 38.01
2020-01-21 16:20 37.09 94.1 35.55 29.14 37.09 12.06 13.49 10.31 10.5 221.6 0.0 0.006 38.01
2020-01-21 16:25 37.09 93.6 35.42 28.47 37.09 13.85 15.64 11.7 11.3 215.5 0.0 0.006 38.03
2020-01-21 16:30 37.09 94.2 35.58 30.38 37.09 9.22 14.2 9.75 7.2 211.3 0.0 0.005 38.05
2020-01-21 16:35 37.15 94.5 35.72 31.41 37.15 7.43 10.63 8.01 9.5 218.3 0.0 0.002 38.05
2020-01-21 16:40 37.15 94.2 35.64 31.02 37.15 8.12 12.95 9.06 9.5 221.3 0.0 0.003 38.05
2020-01-21 16:45 37.27 93.5 35.57 31.46 37.27 7.61 13.85 10.11 11.0 224.7 0.0 0.003 38.07
2020-01-21 16:50 37.33 93.1 35.52 29.94 37.33 10.8 14.74 11.21 8.6 225.1 0.0 0.002 38.07
2020-01-21 16:55 37.22 93.8 35.6 30.13 37.22 10.09 12.24 8.84 11.0 226.6 0.0 0.002 38.07
2020-01-21 17:00 37.22 93.9 35.63 30.72 37.22 8.86 12.95 9.6 9.9 229.3 0.0 0.002 38.08
2020-01-21 17:05 37.22 93.1 35.41 30.54 37.22 9.22 12.42 9.78 9.9 230.3 0.0 0.002 38.08
2020-01-21 17:10 37.22 93.0 35.38 31.19 37.22 7.96 11.88 9.06 8.7 229.1 0.0 0.001 38.1
2020-01-21 17:15 37.22 93.1 35.41 30.45 37.22 9.4 10.98 8.55 11.2 227.2 0.0 0.0 38.1
2020-01-21 17:20 37.22 92.9 35.36 29.66 37.22 11.16 11.52 9.71 9.3 228.3 0.0 0.0 38.1
2020-01-21 17:25 37.09 93.1 35.29 29.35 37.09 11.52 12.59 9.6 7.7 231.6 0.0 0.0 38.1
2020-01-21 17:30 37.02 93.2 35.24 30.05 37.02 9.73 12.06 9.42 8.7 227.0 0.0 0.0 38.1
2020-01-21 17:35 36.97 92.7 35.05 29.9 36.97 9.91 14.74 11.16 8.7 233.9 0.0 0.0 38.12
2020-01-21 17:40 36.91 93.1 35.11 29.13 36.91 11.52 14.74 10.49 9.0 224.0 0.0 0.0 38.1
2020-01-21 17:45 36.84 93.6 35.17 31.49 36.84 6.71 12.42 9.57 9.3 229.0 0.0 0.0 38.12
2020-01-21 17:50 36.84 93.8 35.22 29.34 36.84 10.8 11.88 8.86 9.6 228.5 0.0 0.0 38.12
2020-01-21 17:55 36.91 93.4 35.19 29.05 36.91 11.7 13.85 10.42 9.2 227.5 0.0 0.0 38.1
2020-01-21 18:00 36.79 93.4 35.06 30.28 36.79 8.68 14.03 11.14 11.9 228.8 0.0 0.0 38.1
2020-01-21 18:05 36.72 93.3 34.96 28.25 36.72 13.13 18.32 12.46 9.9 226.3 0.0 0.0 38.12
2020-01-21 18:10 36.72 93.4 34.99 27.62 36.72 14.92 15.99 11.95 10.8 229.9 0.0 0.0 38.1
2020-01-21 18:15 36.72 93.2 34.94 28.66 36.72 12.06 17.78 12.1 11.2 230.7 0.0 0.0 38.1
2020-01-21 18:20 36.66 93.2 34.88 29.19 36.66 10.63 18.86 14.25 10.3 227.9 0.0 0.0 38.1
2020-01-21 18:25 36.41 93.8 34.8 28.27 36.41 12.06 17.43 12.26 10.5 226.3 0.0 0.0 38.1
2020-01-21 18:30 36.41 93.2 34.63 29.2 36.41 9.91 17.07 12.82 7.9 228.5 0.0 0.0 38.08
2020-01-21 18:35 36.36 93.2 34.58 26.27 36.36 17.78 22.08 15.99 7.1 231.0 0.01 0.0 38.08
2020-01-21 18:40 36.23 93.3 34.48 27.06 36.23 14.74 21.01 16.49 7.7 232.5 0.0 0.0 38.08
2020-01-21 18:45 35.98 94.3 34.5 26.92 35.98 14.2 17.96 14.63 9.3 227.4 0.0 0.0 38.07
2020-01-21 18:50 35.87 94.5 34.45 26.36 35.87 15.46 21.36 14.2 8.3 228.5 0.0 0.0 38.05
2020-01-21 18:55 35.92 94.3 34.45 26.26 35.92 15.99 20.11 14.36 13.8 229.4 0.0 0.0 38.05
2020-01-21 19:00 35.98 94.3 34.5 27.88 35.98 11.7 21.01 15.84 9.9 232.4 0.0 0.0 38.03
2020-01-21 19:05 35.87 95.2 34.63 25.86 35.87 17.07 22.08 16.49 10.3 232.5 0.0 0.0 38.01
2020-01-21 19:10 35.74 95.5 34.58 25.75 35.74 16.89 18.86 15.21 7.5 233.9 0.0 0.0 37.99
2020-01-21 19:15 35.92 95.9 34.87 26.09 35.92 16.53 22.97 16.22 9.2 230.6 0.0 0.0 37.99
2020-01-21 19:20 35.92 96.3 34.97 26.14 35.92 16.35 21.72 17.09 8.9 232.0 0.0 0.0 37.96
2020-01-21 19:25 35.98 96.1 34.97 26.1 35.98 16.71 22.62 17.0 8.6 230.8 0.0 0.0 37.92
2020-01-21 19:30 36.05 95.8 34.97 26.83 36.05 14.74 23.87 17.29 9.7 231.9 0.0 0.0 37.92
2020-01-21 19:35 35.98 96.2 35.0 27.45 35.98 12.77 21.72 15.26 9.1 233.5 0.0 0.0 37.89
2020-01-21 19:40 35.98 96.1 34.97 25.28 35.98 19.57 19.57 14.16 10.6 230.9 0.0 0.0 37.85
2020-01-21 19:45 35.92 95.9 34.87 27.74 35.92 11.88 15.82 13.0 11.6 227.5 0.0 0.0 37.85
2020-01-21 19:50 35.87 96.0 34.84 26.72 35.87 14.38 19.75 13.85 9.8 224.3 0.0 0.0 37.81
2020-01-21 19:55 35.98 95.6 34.84 28.58 35.98 10.09 21.54 14.65 9.5 226.1 0.0 0.0 37.8
2020-01-21 20:00 35.8 95.6 34.66 28.45 35.8 9.91 17.61 12.55 11.2 221.3 0.0 0.0 37.76
2020-01-21 20:05 35.67 95.5 34.51 28.45 35.67 9.57 15.46 11.16 10.5 225.5 0.0 0.0 37.74
2020-01-21 20:10 35.74 95.2 34.51 27.81 35.74 11.16 15.82 11.65 11.9 221.7 0.0 0.0 37.71
2020-01-21 20:15 35.74 94.8 34.4 29.21 35.74 8.3 12.59 10.67 12.9 220.2 0.0 0.0 37.69
2020-01-21 20:20 35.8 94.4 34.35 27.96 35.8 10.98 14.03 11.36 10.7 220.0 0.0 0.0 37.67
2020-01-21 20:25 35.74 94.0 34.19 26.5 35.74 14.56 17.61 12.82 11.5 223.5 0.0 0.0 37.63
2020-01-21 20:30 35.67 94.2 34.17 27.88 35.67 10.8 15.1 11.45 8.4 227.5 0.0 0.0 37.6
2020-01-21 20:35 35.67 94.0 34.12 27.06 35.67 12.77 18.14 12.82 10.7 229.9 0.0 0.0 37.58
2020-01-21 20:40 35.74 94.0 34.19 26.75 35.74 13.85 15.99 12.97 8.9 224.9 0.0 0.0 37.56
2020-01-21 20:45 35.74 94.0 34.19 27.02 35.74 13.13 17.07 12.44 10.8 221.9 0.0 0.0 37.53
2020-01-21 20:50 35.74 93.8 34.13 28.54 35.74 9.57 14.56 10.8 9.3 227.1 0.0 0.0 37.51
2020-01-21 20:55 35.69 93.7 34.05 29.65 35.69 7.43 11.16 8.39 8.6 226.9 0.0 0.0 37.47
2020-01-21 21:00 36.0 92.5 34.03 29.61 36.0 8.12 11.52 9.22 9.2 232.3 0.0 0.0 37.44
2020-01-21 21:05 35.94 92.7 34.03 28.96 35.94 9.22 10.27 8.32 10.4 232.7 0.0 0.0 37.4
2020-01-21 21:10 36.0 93.0 34.17 29.12 36.0 9.04 12.42 8.34 13.4 231.5 0.0 0.0 37.36
2020-01-21 21:15 36.05 92.9 34.2 30.08 36.05 7.43 10.8 8.75 11.7 226.4 0.0 0.0 37.36
2020-01-21 21:20 36.12 93.6 34.46 29.37 36.12 8.86 11.88 8.5 10.1 222.3 0.0 0.0 37.33
2020-01-21 21:25 36.0 93.8 34.38 28.52 36.0 10.27 11.16 7.87 11.8 228.3 0.0 0.0 37.29
2020-01-21 21:30 36.25 93.7 34.61 28.22 36.25 11.7 12.95 9.98 12.8 227.8 0.0 0.0 37.26
2020-01-21 21:35 36.3 93.6 34.63 29.23 36.3 9.57 13.13 9.69 10.1 225.5 0.0 0.0 37.24
2020-01-21 21:40 36.48 93.8 34.87 29.38 36.48 9.73 16.35 10.92 10.4 223.0 0.0 0.0 37.18
2020-01-21 21:45 36.61 93.9 35.02 30.36 36.61 8.12 16.71 10.65 8.5 228.7 0.0 0.0 37.17
2020-01-21 21:50 36.68 94.0 35.12 29.29 36.68 10.45 14.03 10.51 9.4 229.1 0.0 0.0 37.13
2020-01-21 21:55 36.91 93.8 35.3 28.84 36.91 12.24 15.99 10.92 9.8 224.8 0.0 0.0 37.09
2020-01-21 22:00 36.86 93.5 35.16 30.96 36.86 7.61 18.68 10.96 10.3 227.3 0.0 0.0 37.06
2020-01-21 22:05 36.79 93.1 34.98 29.51 36.79 10.27 17.78 11.72 13.3 231.9 0.0 0.0 37.04
2020-01-21 22:10 36.73 93.3 34.98 28.54 36.73 12.42 15.46 11.81 9.2 231.0 0.0 0.0 37.0
2020-01-21 22:15 36.86 92.6 34.92 28.37 36.86 13.31 14.74 11.3 10.2 235.4 0.0 0.0 36.97
2020-01-21 22:20 36.72 92.7 34.8 29.58 36.72 9.91 14.2 10.69 8.8 233.4 0.0 0.0 36.93
2020-01-21 22:25 37.09 91.8 34.93 28.53 37.09 13.67 17.25 14.36 9.1 234.0 0.0 0.0 36.91
2020-01-21 22:30 37.09 91.7 34.9 28.53 37.09 13.67 17.43 13.51 9.0 238.2 0.0 0.0 36.88
2020-01-21 22:35 37.22 91.0 34.84 28.04 37.22 15.64 18.68 14.61 8.8 237.9 0.0 0.0 36.88
2020-01-21 22:40 37.15 91.4 34.87 29.42 37.15 11.52 15.99 12.86 9.3 238.4 0.0 0.0 36.82
2020-01-21 22:45 36.97 91.9 34.83 29.65 36.97 10.45 14.03 11.23 12.8 242.8 0.0 0.0 36.81
2020-01-21 22:50 37.35 90.7 34.88 27.27 37.35 18.86 22.08 16.67 8.6 235.9 0.0 0.0 36.79
2020-01-21 22:55 37.35 90.6 34.85 29.18 37.35 12.77 21.54 16.69 7.2 234.8 0.0 0.0 36.77
2020-01-21 23:00 37.15 91.1 34.79 27.78 37.15 16.17 17.25 14.27 9.5 236.0 0.0 0.0 36.75
2020-01-21 23:05 37.27 91.0 34.89 29.72 37.27 11.16 17.25 11.59 8.6 238.3 0.0 0.0 36.72
2020-01-21 23:10 37.58 89.8 34.86 28.61 37.58 15.28 15.82 11.52 9.8 236.2 0.0 0.0 36.7
2020-01-21 23:15 37.71 89.3 34.84 29.13 37.71 14.2 17.43 12.37 9.5 240.2 0.0 0.0 36.66
2020-01-21 23:20 37.71 89.1 34.79 29.38 37.71 13.49 15.28 11.65 10.0 242.9 0.0 0.0 36.64
2020-01-21 23:25 37.89 88.8 34.88 29.67 37.89 13.31 15.82 12.66 11.9 238.4 0.0 0.0 36.61
2020-01-21 23:30 37.89 88.3 34.74 30.27 37.89 11.7 16.89 12.66 9.8 237.1 0.0 0.0 36.59
2020-01-21 23:35 37.63 88.5 34.54 30.4 37.63 10.63 17.43 10.74 12.2 229.2 0.0 0.0 36.57
2020-01-21 23:40 37.45 89.7 34.71 30.83 37.45 9.22 14.74 11.34 11.1 237.8 0.0 0.0 36.54
2020-01-21 23:45 37.09 90.4 34.54 30.05 37.09 9.91 12.06 8.84 9.0 243.5 0.0 0.0 36.52
2020-01-21 23:50 37.22 90.4 34.67 29.29 37.22 12.06 14.74 11.72 8.2 237.8 0.0 0.0 36.5
2020-01-21 23:55 37.15 90.2 34.54 29.64 37.15 10.98 16.35 11.7 8.9 239.8 0.0 0.0 36.46
2020-01-22 00:00 36.97 91.3 34.67 29.81 36.97 10.09 16.17 11.21 9.7 241.2 0.0 0.0 36.45
2020-01-22 00:05 37.09 90.9 34.68 28.79 37.09 12.95 16.35 12.75 6.4 243.1 0.0 0.0 36.43
2020-01-22 00:10 37.09 91.4 34.82 28.05 37.09 15.1 15.1 12.33 9.1 244.1 0.0 0.0 36.39
2020-01-22 00:15 36.97 91.3 34.67 30.5 36.97 8.68 15.46 11.83 9.6 245.4 0.0 0.0 36.39
2020-01-22 00:20 37.09 91.5 34.85 29.65 37.09 10.8 15.46 10.63 12.7 246.2 0.0 0.0 36.36
2020-01-22 00:25 37.27 90.9 34.86 29.22 37.27 12.42 14.92 11.9 10.2 242.1 0.0 0.0 36.34
2020-01-22 00:30 37.45 90.9 35.04 30.34 37.45 10.27 14.2 10.58 12.8 240.7 0.0 0.0 36.32
2020-01-22 00:35 37.71 90.2 35.09 30.65 37.71 10.27 14.38 10.72 11.4 244.6 0.0 0.0 36.3
2020-01-22 00:40 37.83 90.0 35.16 30.65 37.83 10.63 14.74 10.4 10.0 250.2 0.0 0.0 36.27
2020-01-22 00:45 37.71 90.3 35.12 31.31 37.71 8.86 13.13 10.09 12.6 249.9 0.0 0.0 36.25
2020-01-22 00:50 37.58 90.5 35.05 30.49 37.58 10.27 12.95 9.78 11.0 256.8 0.0 0.0 36.21
2020-01-22 00:55 37.53 90.4 34.97 31.48 37.53 8.12 14.03 10.94 12.7 255.2 0.0 0.0 36.19
2020-01-22 01:00 37.53 90.7 35.06 30.83 37.53 9.4 13.85 10.65 11.3 255.6 0.0 0.0 36.18
2020-01-22 01:05 37.76 90.1 35.12 29.97 37.76 12.06 13.67 10.92 10.4 254.6 0.0 0.0 36.18
2020-01-22 01:10 38.26 88.9 35.28 30.02 38.26 13.67 14.56 10.83 9.9 262.1 0.0 0.0 36.14
2020-01-22 01:15 38.57 87.3 35.12 30.6 38.57 13.13 16.17 10.85 10.5 261.0 0.0 0.0 36.12
2020-01-22 01:20 39.31 85.0 35.18 31.35 39.31 13.67 19.57 14.0 11.0 261.9 0.0 0.0 36.1
2020-01-22 01:25 39.43 84.4 35.12 30.42 39.43 17.25 19.57 14.83 13.0 261.1 0.0 0.0 36.09
2020-01-22 01:30 39.36 84.5 35.08 30.43 39.36 16.89 17.25 14.05 10.3 263.7 0.0 0.0 36.07
2020-01-22 01:35 39.24 84.2 34.87 31.51 39.24 12.95 21.36 13.69 13.5 264.3 0.0 0.0 36.05
2020-01-22 01:40 39.43 83.4 34.82 30.89 39.43 15.64 22.08 14.36 12.5 265.5 0.0 0.0 36.05
2020-01-22 01:45 39.54 83.1 34.84 31.3 39.54 14.74 22.26 15.5 13.4 266.3 0.0 0.0 36.05
2020-01-22 01:50 39.67 83.0 34.93 31.35 39.67 15.1 22.08 17.11 10.8 265.7 0.0 0.0 36.03
2020-01-22 01:55 39.74 82.9 34.97 31.23 39.74 15.82 21.01 16.49 12.3 264.1 0.0 0.0 36.01
2020-01-22 02:00 39.79 81.8 34.69 31.46 39.79 15.28 24.58 18.21 11.7 263.7 0.0 0.0 36.01
2020-01-22 02:05 39.54 82.4 34.62 29.65 39.54 20.83 22.8 15.64 9.3 262.3 0.0 0.0 35.98
2020-01-22 02:10 39.67 82.4 34.75 30.72 39.67 17.25 22.97 17.74 9.8 262.4 0.0 0.0 35.98
2020-01-22 02:15 39.61 82.1 34.6 30.46 39.61 17.96 22.62 18.34 13.5 262.5 0.0 0.0 35.98
2020-01-22 02:20 39.43 82.7 34.61 30.73 39.43 16.17 24.41 17.72 11.0 259.5 0.0 0.0 35.96
2020-01-22 02:25 39.43 82.3 34.49 29.47 39.43 21.01 25.28 18.93 11.5 264.5 0.0 0.0 35.96
2020-01-22 02:30 39.31 82.8 34.52 31.86 39.31 12.24 23.69 18.39 10.9 262.3 0.0 0.0 35.96
2020-01-22 02:35 39.43 82.0 34.4 29.77 39.43 19.75 26.53 20.18 11.2 258.2 0.0 0.0 35.96
2020-01-22 02:40 39.36 82.8 34.57 29.85 39.36 19.04 23.33 18.46 13.1 261.4 0.0 0.0 35.96
2020-01-22 02:45 39.06 83.4 34.45 28.8 39.06 21.72 21.72 16.24 10.7 261.7 0.0 0.0 35.94
2020-01-22 02:50 39.13 83.3 34.49 31.83 39.13 11.7 21.36 17.16 12.7 261.6 0.0 0.0 35.94
2020-01-22 02:55 38.75 83.7 34.24 29.15 38.75 18.68 22.62 14.83 10.3 261.9 0.0 0.0 35.94
2020-01-22 03:00 38.93 83.5 34.36 31.06 38.93 13.13 22.97 16.78 12.1 267.9 0.0 0.0 35.94
2020-01-22 03:05 38.88 83.1 34.19 30.28 38.88 15.28 22.08 17.02 12.9 268.8 0.0 0.0 35.94
2020-01-22 03:10 38.93 82.2 33.97 30.02 38.93 16.35 21.01 16.2 14.0 263.0 0.0 0.0 35.94
2020-01-22 03:15 39.06 81.4 33.84 29.32 39.06 19.57 22.8 17.94 11.1 260.4 0.0 0.0 35.94
2020-01-22 03:20 39.24 80.9 33.87 30.91 39.24 14.74 25.81 19.15 12.5 263.6 0.0 0.0 35.94
2020-01-22 03:25 39.0 81.4 33.79 31.96 39.0 10.98 22.97 17.92 11.6 266.9 0.0 0.0 35.94
2020-01-22 03:30 38.93 82.0 33.9 29.82 38.93 17.07 20.11 17.14 12.3 263.2 0.0 0.0 35.94
2020-01-22 03:35 38.93 81.6 33.78 27.9 38.93 25.1 26.35 16.71 13.1 260.4 0.0 0.0 35.94
2020-01-22 03:40 38.7 82.8 33.92 30.89 38.7 12.77 25.1 16.33 12.9 266.9 0.0 0.0 35.94
2020-01-22 03:45 38.8 81.3 33.57 28.43 38.8 21.9 22.26 16.89 13.5 263.8 0.0 0.0 35.91
2020-01-22 03:50 38.75 81.6 33.61 29.34 38.75 17.96 21.72 15.91 12.0 266.2 0.0 0.0 35.91
2020-01-22 03:55 38.7 81.5 33.52 28.37 38.7 21.54 25.46 17.52 9.6 262.3 0.0 0.0 35.91
2020-01-22 04:00 38.44 82.2 33.49 29.19 38.44 17.07 21.72 15.26 12.2 264.5 0.0 0.0 35.91
2020-01-22 04:05 38.5 81.4 33.3 29.74 38.5 15.46 20.29 16.78 12.5 264.8 0.0 0.0 35.91
2020-01-22 04:10 38.44 82.2 33.49 29.89 38.44 14.74 19.22 15.03 13.0 261.5 0.0 0.0 35.89
2020-01-22 04:15 38.44 81.6 33.31 31.19 38.44 11.16 21.18 16.53 13.1 260.1 0.0 0.0 35.89
2020-01-22 04:20 38.19 82.1 33.21 29.23 38.19 15.82 19.04 14.99 13.1 261.4 0.0 0.0 35.89
2020-01-22 04:25 38.32 81.9 33.28 29.51 38.32 15.46 25.28 16.87 11.0 261.9 0.0 0.0 35.89
2020-01-22 04:30 38.19 82.1 33.21 28.56 38.19 18.14 20.65 15.84 10.5 270.2 0.0 0.0 35.87
2020-01-22 04:35 38.32 81.5 33.15 28.04 38.32 20.83 24.41 16.62 11.2 265.7 0.0 0.0 35.87
2020-01-22 04:40 38.44 81.8 33.37 29.45 38.44 16.17 22.26 17.94 10.2 265.7 0.0 0.0 35.87
2020-01-22 04:45 38.37 81.6 33.24 28.51 38.37 19.22 23.15 15.93 11.5 264.3 0.0 0.0 35.85
2020-01-22 04:50 38.5 81.8 33.42 28.36 38.5 20.47 22.97 18.19 12.6 266.5 0.0 0.0 35.85
2020-01-22 04:55 38.7 81.2 33.43 29.12 38.7 18.5 26.35 19.24 14.0 256.8 0.0 0.0 35.83
2020-01-22 05:00 38.57 81.4 33.37 29.35 38.57 17.07 23.51 18.79 11.2 259.1 0.0 0.0 35.83
2020-01-22 05:05 38.19 82.4 33.3 28.47 38.19 18.5 23.15 16.13 10.3 261.1 0.0 0.0 35.82
2020-01-22 05:10 38.37 82.1 33.39 29.15 38.37 16.89 23.33 17.87 12.5 266.8 0.0 0.0 35.82
2020-01-22 05:15 38.37 82.1 33.39 29.36 38.37 16.17 22.44 17.05 7.7 267.6 0.0 0.0 35.82
2020-01-22 05:20 38.19 82.8 33.43 28.66 38.19 17.78 23.87 17.67 12.3 262.1 0.0 0.0 35.78
2020-01-22 05:25 37.89 83.5 33.34 29.3 37.89 14.38 19.39 15.48 15.1 270.0 0.0 0.0 35.78
2020-01-22 05:30 37.71 84.0 33.31 28.61 37.71 15.82 20.47 14.7 9.1 269.1 0.0 0.0 35.78
2020-01-22 05:35 37.58 84.2 33.24 29.75 37.58 12.06 18.14 13.74 9.0 274.4 0.0 0.0 35.76
2020-01-22 05:40 37.53 84.2 33.19 29.02 37.53 13.85 15.28 12.59 9.6 276.0 0.0 0.0 35.74
2020-01-22 05:45 37.45 84.0 33.06 32.11 37.45 6.89 16.89 11.54 11.7 280.3 0.0 0.0 35.74
2020-01-22 05:50 37.15 84.4 32.88 29.35 37.15 11.7 14.56 10.42 16.1 280.7 0.0 0.0 35.74
2020-01-22 05:55 37.09 84.7 32.92 31.45 37.09 7.25 14.38 10.25 12.1 285.5 0.0 0.0 35.73
2020-01-22 06:00 37.09 83.4 32.53 29.57 37.09 10.98 16.89 11.01 12.7 283.1 0.0 0.0 35.71
2020-01-22 06:05 37.09 84.7 32.92 28.47 37.09 13.85 18.32 12.71 13.7 285.6 0.0 0.0 35.71
2020-01-22 06:10 36.72 86.4 33.04 29.03 36.72 11.16 16.71 12.12 13.3 284.8 0.0 0.0 35.71
2020-01-22 06:15 36.54 87.2 33.09 28.22 36.54 12.59 15.64 12.62 9.9 285.6 0.0 0.0 35.67
2020-01-22 06:20 36.36 87.7 33.06 28.28 36.36 11.88 15.99 12.84 10.5 287.2 0.0 0.0 35.67
2020-01-22 06:25 36.36 88.3 33.23 29.22 36.36 9.73 14.74 11.68 13.0 283.3 0.0 0.0 35.65
2020-01-22 06:30 36.48 88.0 33.27 28.22 36.48 12.42 16.71 11.92 11.6 282.1 0.0 0.0 35.64
2020-01-22 06:35 36.36 88.0 33.14 28.21 36.36 12.06 16.89 11.88 14.9 278.0 0.0 0.0 35.64
2020-01-22 06:40 36.48 88.0 33.27 28.97 36.48 10.63 19.22 13.67 9.0 274.2 0.0 0.0 35.62
2020-01-22 06:45 36.54 87.2 33.09 27.27 36.54 15.28 16.71 13.33 10.9 272.7 0.0 0.0 35.6
2020-01-22 06:50 36.23 87.5 32.88 28.73 36.23 10.45 17.78 13.29 9.8 266.6 0.0 0.0 35.58
2020-01-22 06:55 35.87 88.1 32.69 27.97 35.87 11.16 16.89 11.86 11.5 263.7 0.0 0.0 35.58
2020-01-22 07:00 35.74 88.6 32.71 27.97 35.74 10.8 16.71 11.52 9.5 266.8 0.0 0.0 35.56
2020-01-22 07:05 35.37 88.9 32.42 28.0 35.37 9.73 13.13 10.69 10.4 262.2 0.0 0.0 35.55
2020-01-22 07:10 35.74 87.2 32.31 28.21 35.74 10.27 14.38 10.4 13.9 269.0 0.0 0.0 35.55
2020-01-22 07:15 35.67 87.4 32.3 30.85 35.67 5.64 11.16 7.74 15.8 285.7 0.0 0.0 35.55
2020-01-22 07:20 35.92 87.8 32.66 29.33 35.92 8.48 8.48 7.27 13.2 301.4 0.0 0.001 35.51
2020-01-22 07:25 36.3 86.6 32.69 30.39 36.3 7.43 11.34 7.92 15.7 298.1 0.0 0.001 35.53
2020-01-22 07:30 36.43 86.6 32.81 29.74 36.43 8.86 11.16 8.39 12.6 294.4 0.0 0.001 35.51
2020-01-22 07:35 36.73 86.3 33.03 29.61 36.73 9.91 14.38 9.53 16.5 287.5 0.0 0.002 35.49
2020-01-22 07:40 36.97 84.7 32.79 28.25 36.97 14.03 17.61 12.86 12.6 278.3 0.0 0.004 35.51
2020-01-22 07:45 36.84 85.0 32.76 29.49 36.84 10.45 18.68 13.09 15.4 276.4 0.0 0.003 35.47
2020-01-22 07:50 36.66 85.4 32.7 29.19 36.66 10.63 16.35 12.71 12.5 273.2 0.0 0.009 35.47
2020-01-22 07:55 37.09 84.7 32.92 29.0 37.09 12.42 18.32 13.13 12.8 281.6 0.0 0.019 35.46
2020-01-22 08:00 37.45 84.0 33.06 30.34 37.45 10.27 16.53 12.66 10.9 275.6 0.0 0.029 35.46
2020-01-22 08:05 37.83 82.2 32.89 29.47 37.83 13.67 16.53 12.08 13.6 283.2 0.0 0.031 35.46
2020-01-22 08:10 37.96 81.5 32.8 30.51 37.96 11.34 15.46 12.33 14.9 287.4 0.0 0.033 35.46
2020-01-22 08:15 38.07 81.6 32.94 31.76 38.07 8.86 16.17 12.84 13.5 291.6 0.0 0.035 35.46
2020-01-22 08:20 38.32 79.82 32.63 29.34 38.32 15.99 18.86 13.42 14.9 293.8 0.0 0.038 35.46
2020-01-22 08:25 38.57 78.96 32.61 30.06 38.57 14.74 17.25 12.35 17.2 288.6 0.0 0.042 35.44
2020-01-22 08:30 38.62 78.42 32.49 29.17 38.62 17.96 19.04 15.03 10.9 283.5 0.0 0.045 35.46
2020-01-22 08:35 38.26 79.24 32.4 30.54 38.26 12.24 19.75 14.16 12.2 280.3 0.0 0.019 35.46
2020-01-22 08:40 37.81 80.1 32.23 29.71 37.81 12.95 16.71 12.19 10.7 283.5 0.0 0.012 35.44
2020-01-22 08:45 37.89 78.27 31.73 28.84 37.89 15.82 15.82 10.58 17.9 293.5 0.0 0.015 35.44
2020-01-22 08:50 38.86 76.9 32.23 32.64 38.86 9.04 16.53 11.95 15.0 293.8 0.0 0.042 35.46
2020-01-22 08:55 39.72 73.31 31.88 32.58 39.72 11.7 15.82 11.39 13.0 286.7 0.0 0.059 35.47
2020-01-22 09:00 40.03 71.98 31.72 31.87 40.03 14.92 16.89 12.82 12.9 286.3 0.0 0.061 35.47
2020-01-22 09:05 40.46 70.07 31.47 32.42 40.46 14.92 19.04 14.7 14.1 293.0 0.0 0.064 35.49
2020-01-22 09:10 40.82 72.25 32.58 33.51 40.82 12.95 20.29 14.18 11.0 285.1 0.0 0.067 35.51
2020-01-22 09:15 40.77 68.49 31.2 32.1 40.77 17.43 17.43 14.09 13.3 293.6 0.0 0.07 35.55
2020-01-22 09:20 41.13 69.38 31.87 33.84 41.13 13.13 17.43 13.27 14.3 290.0 0.0 0.074 35.56
2020-01-22 09:25 40.87 68.39 31.27 32.19 40.87 17.61 22.44 15.97 11.9 279.9 0.0 0.07 35.6
2020-01-22 09:30 40.39 68.49 30.84 31.11 40.39 19.39 22.44 17.4 14.0 280.3 0.0 0.064 35.64
2020-01-22 09:35 40.8 68.41 31.21 31.52 40.8 19.93 22.97 18.37 12.5 279.4 0.0 0.08 35.67
2020-01-22 09:40 41.23 70.32 32.3 34.16 41.23 12.59 20.47 16.02 14.0 275.3 0.0 0.08 35.69
2020-01-22 09:45 41.47 66.5 31.14 32.78 41.47 18.32 22.08 17.22 12.2 280.7 0.0 0.083 35.74
2020-01-22 09:50 41.67 66.16 31.21 34.07 41.67 14.56 22.08 18.28 9.8 278.1 0.0 0.087 35.8
2020-01-22 09:55 42.21 65.95 31.64 36.84 42.21 8.86 19.04 13.82 15.9 285.0 0.0 0.089 35.85
2020-01-22 10:00 42.64 61.85 30.47 34.86 42.64 16.17 20.83 14.63 12.2 288.7 0.0 0.091 35.91
2020-01-22 10:05 42.46 60.45 29.73 34.82 42.46 15.46 20.65 16.15 15.6 283.2 0.0 0.09 35.96
2020-01-22 10:10 42.33 60.72 29.72 34.82 42.33 14.92 22.62 16.24 16.4 292.2 0.0 0.094 36.01
2020-01-22 10:15 42.82 62.8 31.01 36.79 42.82 10.8 21.36 15.41 14.6 299.8 0.0 0.094 36.1
2020-01-22 10:20 43.25 59.42 30.06 36.1 43.25 14.56 17.96 14.23 16.1 288.8 0.0 0.088 36.19
2020-01-22 10:25 43.0 58.36 29.38 36.33 43.0 12.77 19.75 15.37 18.3 295.1 0.0 0.097 36.27
2020-01-22 10:30 43.25 57.1 29.08 34.5 43.25 21.01 21.36 15.75 16.2 293.5 0.0 0.1 36.37
2020-01-22 10:35 43.3 60.41 30.51 36.83 43.3 12.42 22.26 16.84 15.6 281.1 0.0 0.109 36.43
2020-01-22 10:40 43.3 59.66 30.21 37.82 43.3 9.73 18.86 14.05 17.5 294.7 0.0 0.1 36.54
2020-01-22 10:45 43.05 57.54 29.08 35.34 43.05 16.35 16.35 12.57 18.5 298.3 0.0 0.056 36.64
2020-01-22 10:50 42.26 56.86 28.05 34.27 42.26 16.53 19.93 15.73 18.3 292.6 0.0 0.05 36.75
2020-01-22 10:55 42.26 55.36 27.4 33.77 42.26 18.5 21.36 17.25 16.0 301.2 0.0 0.067 36.88
2020-01-22 11:00 43.05 56.69 28.72 35.49 43.05 15.82 22.97 17.61 14.7 291.1 0.0 0.106 36.99
2020-01-22 11:05 43.56 54.4 28.18 35.05 43.56 20.29 24.94 19.15 16.2 297.6 0.0 0.117 37.13
2020-01-22 11:10 44.17 56.38 29.63 36.69 44.17 16.71 23.51 17.54 11.3 297.0 0.0 0.114 37.24
2020-01-22 11:15 44.04 54.68 28.76 36.44 44.04 17.07 25.28 18.3 13.2 292.3 0.0 0.114 37.36
2020-01-22 11:20 43.79 55.7 28.98 35.36 43.79 20.29 23.69 20.29 15.8 296.8 0.0 0.115 37.47
2020-01-22 11:25 43.61 53.0 27.6 35.4 43.61 19.04 27.25 20.71 13.7 288.9 0.0 0.11 37.58
2020-01-22 11:30 43.66 54.61 28.38 35.9 43.66 17.25 29.04 22.21 13.2 288.4 0.0 0.117 37.72
2020-01-22 11:35 44.1 53.34 28.2 35.39 44.1 22.08 25.81 20.78 13.7 284.2 0.0 0.118 37.81
2020-01-22 11:40 43.84 52.93 27.78 34.91 43.84 22.8 26.53 20.36 14.3 299.0 0.0 0.117 37.92
2020-01-22 11:45 43.48 53.89 27.88 34.3 43.48 23.51 25.81 21.01 15.4 298.6 0.0 0.118 38.03
2020-01-22 11:50 44.22 51.67 27.55 35.21 44.22 23.87 23.87 19.08 15.0 297.8 0.0 0.119 38.16
2020-01-22 11:55 44.1 52.49 27.81 35.76 44.1 20.29 24.05 18.37 15.8 292.6 0.0 0.119 38.26
2020-01-22 12:00 44.02 53.88 28.38 35.08 44.02 23.15 27.96 21.01 15.8 282.5 0.0 0.119 38.37
2020-01-22 12:05 43.97 52.69 27.79 35.22 43.97 22.08 28.32 21.79 12.5 283.4 0.0 0.119 38.48
2020-01-22 12:10 43.79 54.94 28.64 36.2 43.79 16.71 25.64 17.78 17.1 289.5 0.0 0.119 38.61
2020-01-22 12:15 44.28 54.74 29.0 36.28 44.28 19.04 24.76 19.6 15.3 283.9 0.0 0.119 38.71
2020-01-22 12:20 44.02 53.47 28.2 35.37 44.02 21.72 24.76 19.35 15.7 283.7 0.0 0.119 38.82
2020-01-22 12:25 44.02 51.05 27.07 35.48 44.02 21.18 26.17 19.93 14.9 293.6 0.0 0.119 38.91
2020-01-22 12:30 45.01 51.46 28.18 37.92 45.01 16.17 23.51 17.34 15.8 290.1 0.0 0.118 39.02
2020-01-22 12:35 45.37 51.46 28.51 38.96 45.37 14.03 22.8 16.31 17.1 288.1 0.0 0.118 39.13
2020-01-22 12:40 44.53 51.8 27.89 36.9 44.53 17.78 25.81 19.91 15.8 295.1 0.0 0.117 39.24
2020-01-22 12:45 45.01 49.0 26.99 35.53 45.01 28.14 28.14 20.33 13.2 288.9 0.0 0.117 39.34
2020-01-22 12:50 44.53 50.61 27.33 35.62 44.53 23.87 29.93 23.58 12.5 282.2 0.0 0.116 39.43
2020-01-22 12:55 44.53 52.0 27.99 37.16 44.53 16.71 25.99 21.45 11.7 293.2 0.0 0.116 39.52
2020-01-22 13:00 44.94 49.96 27.39 36.27 44.94 23.33 25.99 21.9 14.2 286.3 0.0 0.115 39.61
2020-01-22 13:05 45.01 49.14 27.06 35.92 45.01 25.81 27.25 19.98 14.3 294.1 0.0 0.114 39.72
2020-01-22 13:10 44.76 50.67 27.57 38.13 44.76 14.2 22.26 18.19 11.9 303.5 0.0 0.112 39.81
2020-01-22 13:15 45.45 49.85 27.81 38.85 45.45 14.74 24.94 17.25 15.8 295.7 0.0 0.111 39.9
2020-01-22 13:20 45.01 50.91 27.92 37.08 45.01 19.75 25.1 20.42 15.5 295.2 0.0 0.11 39.99
2020-01-22 13:25 45.19 48.8 27.06 37.28 45.19 19.93 24.76 18.95 13.2 305.7 0.0 0.109 40.06
2020-01-22 13:30 45.25 47.6 26.5 36.45 45.25 24.58 26.17 20.47 19.2 296.8 0.0 0.108 40.17
2020-01-22 13:35 45.19 48.83 27.07 37.48 45.19 19.04 29.04 20.45 14.3 292.0 0.0 0.106 40.24
2020-01-22 13:40 45.14 47.57 26.39 36.84 45.14 21.72 24.94 20.65 15.9 296.4 0.0 0.105 40.32
2020-01-22 13:45 45.14 47.3 26.25 37.21 45.14 19.93 25.46 20.11 17.9 294.5 0.0 0.104 40.41
2020-01-22 13:50 45.07 48.93 27.01 37.77 45.07 17.07 28.14 22.44 15.4 284.1 0.0 0.102 40.48
2020-01-22 13:55 45.45 46.72 26.23 37.32 45.45 21.36 23.33 18.03 14.0 296.0 0.0 0.1 40.55
2020-01-22 14:00 45.07 46.99 26.03 36.34 45.07 23.87 25.81 21.41 11.4 298.1 0.0 0.098 40.62
2020-01-22 14:05 45.45 47.43 26.6 39.21 45.45 13.49 30.11 21.12 15.6 289.9 0.0 0.097 40.69
2020-01-22 14:10 45.5 46.2 26.01 38.59 45.5 15.99 29.04 20.49 12.4 296.3 0.0 0.095 40.78
2020-01-22 14:15 45.5 45.04 25.4 37.25 45.5 22.08 23.51 19.26 15.1 292.4 0.0 0.093 40.86
2020-01-22 14:20 45.75 45.59 25.92 37.28 45.75 23.69 28.32 21.77 12.7 283.2 0.0 0.091 40.91
2020-01-22 14:25 46.18 43.1 24.96 38.29 46.18 21.36 27.6 19.66 15.7 291.7 0.0 0.089 40.96
2020-01-22 14:30 45.68 44.4 25.22 38.43 45.68 17.61 21.9 17.61 14.5 290.5 0.0 0.086 41.04
2020-01-22 14:35 45.93 44.33 25.41 39.98 45.93 12.95 23.51 16.62 15.0 304.1 0.0 0.084 41.11
2020-01-22 14:40 46.29 42.76 24.87 38.33 46.29 21.9 22.8 16.37 19.1 294.0 0.0 0.082 41.18
2020-01-22 14:45 45.88 42.45 24.32 38.37 45.88 19.04 26.35 19.78 11.2 291.6 0.0 0.08 41.25
2020-01-22 14:50 45.81 42.14 24.08 38.01 45.81 20.29 25.28 20.22 15.7 288.9 0.0 0.078 41.32
2020-01-22 14:55 45.81 44.57 25.43 38.81 45.81 16.71 25.81 18.68 8.3 282.1 0.0 0.075 41.38
2020-01-22 15:00 45.75 43.0 24.51 37.45 45.75 22.8 22.97 18.72 16.0 287.6 0.0 0.073 41.41
2020-01-22 15:05 45.55 42.89 24.27 37.75 45.55 19.93 26.71 20.85 14.8 283.1 0.0 0.07 41.49
2020-01-22 15:10 45.99 42.28 24.32 38.28 45.99 20.11 23.69 19.42 14.1 283.1 0.0 0.068 41.52
2020-01-22 15:15 45.86 43.37 24.82 38.84 45.86 16.89 21.9 18.25 13.1 286.7 0.0 0.065 41.59
2020-01-22 15:20 45.86 41.49 23.76 38.12 45.86 20.11 24.23 17.74 16.6 291.9 0.0 0.063 41.63
2020-01-22 15:25 45.63 43.71 24.79 38.99 45.63 15.1 22.44 16.96 15.0 295.5 0.0 0.06 41.67
2020-01-22 15:30 45.63 43.2 24.51 38.67 45.63 16.35 24.41 17.4 14.0 280.6 0.0 0.057 41.7
2020-01-22 15:35 45.32 43.13 24.19 38.01 45.32 17.43 23.51 18.68 15.2 285.6 0.0 0.055 41.74

Data is courtesy of the NM Climate Center. DO NOT USE IN LEGAL PROCEEDINGS.